Stewart, Minnesota
Current Conditions -  °F | °C
As of 10:12 PM on Tuesday 27 Jan 2015 (Local Time) from KHCD Reporting Station
Overcast Overcast  
Wind Chill: 24°   Ceiling: 1000
Heat Index: 33°   Visibility: 10mi
Dew Point: 31°   Wind: 12mph
Humidity: 93%   Direction: 130°SE
Pressure: 30.08"   Gusts: NA
Location:  44.72°N, 94.49°W
Report Text: KHCD 280412Z AUTO 13010KT 10SM OVC010 01/00 A3008 RMK AO2 T00061004
Loading
Personal Weather Stations






























Interactive Weather Map New forecast layout! Learn more

10-Day Weather Forecast

Advertisements
Track Severe Weather on mobile